createdAt,value
2023-02-23T00:00:21.095Z,80.13
2023-02-23T00:02:44.950Z,79.69
2023-02-23T00:05:09.731Z,79.47
2023-02-23T00:07:33.730Z,79.55
2023-02-23T00:09:57.262Z,80.06
2023-02-23T00:12:21.101Z,81.20
2023-02-23T00:14:46.172Z,80.61
2023-02-23T00:17:14.417Z,78.92
2023-02-23T00:19:38.322Z,79.07
2023-02-23T00:22:01.965Z,80.43
2023-02-23T00:24:27.101Z,80.54
2023-02-23T00:26:51.604Z,80.96
2023-02-23T00:29:17.947Z,80.86
2023-02-23T00:31:44.396Z,80.56
2023-02-23T00:34:08.308Z,80.38
2023-02-23T00:36:35.000Z,79.84
2023-02-23T00:39:01.684Z,81.03
2023-02-23T00:41:28.712Z,81.35
2023-02-23T00:43:55.020Z,80.79
2023-02-23T00:46:21.651Z,80.51
2023-02-23T00:48:47.660Z,80.62
2023-02-23T00:51:12.055Z,81.64
2023-02-23T00:53:36.839Z,80.76
2023-02-23T00:56:00.608Z,82.37
2023-02-23T00:58:24.670Z,80.24
2023-02-23T01:00:48.301Z,81.25
2023-02-23T01:03:12.053Z,80.20
2023-02-23T01:05:37.554Z,81.49
2023-02-23T01:08:01.066Z,81.95
2023-02-23T01:10:24.704Z,81.85
2023-02-23T01:12:50.701Z,80.41
2023-02-23T01:15:14.314Z,80.24
2023-02-23T01:17:37.859Z,81.92
2023-02-23T01:20:01.435Z,81.46
2023-02-23T01:22:26.400Z,80.87
2023-02-23T01:24:50.000Z,81.85
2023-02-23T01:27:13.691Z,82.04
2023-02-23T01:29:37.283Z,81.84
2023-02-23T01:32:03.266Z,82.11
2023-02-23T01:34:28.319Z,81.38
2023-02-23T01:36:52.328Z,82.30
2023-02-23T01:39:20.881Z,81.56
2023-02-23T01:41:45.937Z,81.61
2023-02-23T01:45:03.461Z,79.92
2023-02-23T01:47:27.838Z,80.66
2023-02-23T01:49:51.459Z,80.45
2023-02-23T01:52:18.152Z,81.35
2023-02-23T01:54:50.534Z,81.31
2023-02-23T01:57:15.902Z,81.92
2023-02-23T01:59:43.373Z,81.96
2023-02-23T02:02:07.730Z,80.47
2023-02-23T02:04:38.285Z,81.42
2023-02-23T02:07:03.843Z,82.27
2023-02-23T02:09:28.439Z,81.56
2023-02-23T02:11:54.260Z,83.16
2023-02-23T02:14:23.858Z,81.52
2023-02-23T02:17:03.582Z,82.19
2023-02-23T02:20:00.782Z,81.48
2023-02-23T02:23:11.266Z,81.18
2023-02-23T02:25:55.407Z,80.65
2023-02-23T02:28:45.953Z,82.96
2023-02-23T02:31:39.216Z,81.75
2023-02-23T02:34:33.663Z,82.88
2023-02-23T02:37:28.341Z,82.66
2023-02-23T02:40:16.004Z,82.21
2023-02-23T02:42:57.062Z,81.51
2023-02-23T02:45:29.715Z,81.80
2023-02-23T02:48:00.532Z,81.67
2023-02-23T02:50:31.485Z,81.41
2023-02-23T02:53:02.715Z,81.34
2023-02-23T02:55:34.219Z,81.49
2023-02-23T02:58:02.234Z,81.49
2023-02-23T03:00:50.163Z,81.34
2023-02-23T03:03:48.933Z,81.82
2023-02-23T03:06:29.864Z,82.11
2023-02-23T03:09:20.636Z,83.08
2023-02-23T03:12:17.524Z,81.84
2023-02-23T03:15:11.113Z,83.32
2023-02-23T03:18:02.413Z,83.52
2023-02-23T03:20:49.307Z,83.84
2023-02-23T03:23:38.880Z,83.79
2023-02-23T03:26:26.601Z,82.11
2023-02-23T03:29:21.795Z,81.58
2023-02-23T03:32:09.893Z,82.05
2023-02-23T03:34:56.354Z,81.77
2023-02-23T03:37:46.367Z,81.77
2023-02-23T03:40:34.762Z,82.63
2023-02-23T03:43:20.624Z,82.42
2023-02-23T03:46:04.581Z,81.73
2023-02-23T03:48:47.020Z,82.84
2023-02-23T03:51:30.548Z,83.97
2023-02-23T03:54:19.240Z,82.50
2023-02-23T03:57:06.499Z,83.02
2023-02-23T03:59:52.702Z,83.71
2023-02-23T04:02:37.208Z,83.33
2023-02-23T04:05:20.992Z,82.93
2023-02-23T04:08:04.895Z,83.78
2023-02-23T04:10:49.411Z,83.41
2023-02-23T04:13:17.898Z,83.36
2023-02-23T04:15:49.962Z,83.92
2023-02-23T04:18:16.881Z,84.62
2023-02-23T04:20:40.466Z,83.60
2023-02-23T04:23:04.146Z,83.31
2023-02-23T04:25:28.468Z,82.72
2023-02-23T04:27:52.134Z,82.48
2023-02-23T04:30:15.833Z,81.71
2023-02-23T04:32:40.912Z,83.06
2023-02-23T04:35:04.851Z,83.15
2023-02-23T04:37:28.463Z,82.02
2023-02-23T04:39:51.998Z,83.36
2023-02-23T04:42:15.902Z,83.66
2023-02-23T04:44:39.444Z,83.72
2023-02-23T04:47:03.012Z,82.68
2023-02-23T04:49:27.923Z,83.70
2023-02-23T04:51:51.567Z,83.94
2023-02-23T04:54:15.092Z,83.26
2023-02-23T04:56:39.529Z,83.48
2023-02-23T04:59:03.393Z,84.40
2023-02-23T05:01:27.253Z,84.02
2023-02-23T05:03:51.440Z,82.56
2023-02-23T05:06:16.782Z,83.46
2023-02-23T05:08:40.325Z,83.96
2023-02-23T05:11:03.984Z,85.86
2023-02-23T05:13:27.487Z,84.98
2023-02-23T05:15:51.766Z,84.47
2023-02-23T05:18:15.324Z,84.69
2023-02-23T05:20:38.945Z,85.91
2023-02-23T05:23:03.925Z,85.42
2023-02-23T05:25:27.560Z,84.85
2023-02-23T05:27:51.102Z,85.01
2023-02-23T05:30:15.553Z,85.05
2023-02-23T05:32:39.092Z,85.73
2023-02-23T05:35:03.000Z,84.23
2023-02-23T05:37:26.552Z,83.75
2023-02-23T05:39:51.611Z,83.36
2023-02-23T05:42:15.145Z,83.55
2023-02-23T05:44:38.883Z,83.98
2023-02-23T05:47:02.380Z,84.56
2023-02-23T05:49:26.002Z,85.29
2023-02-23T05:51:49.907Z,86.21
2023-02-23T05:54:14.078Z,85.14
2023-02-23T05:56:39.394Z,85.42
2023-02-23T05:59:04.562Z,84.97
2023-02-23T06:01:29.080Z,83.99
2023-02-23T06:03:53.062Z,83.61
2023-02-23T06:06:17.271Z,83.24
2023-02-23T06:08:40.952Z,83.14
2023-02-23T06:11:04.928Z,85.19
2023-02-23T06:13:30.361Z,85.15
2023-02-23T06:15:53.896Z,85.64
2023-02-23T06:18:18.254Z,85.69
2023-02-23T06:20:41.821Z,86.04
2023-02-23T06:23:06.463Z,85.81
2023-02-23T06:25:30.015Z,85.30
2023-02-23T06:27:53.725Z,85.52
2023-02-23T06:30:19.533Z,85.52
2023-02-23T06:32:43.496Z,84.42
2023-02-23T06:35:11.363Z,84.35
2023-02-23T06:37:39.097Z,84.16
2023-02-23T06:40:03.088Z,84.59
2023-02-23T06:42:27.329Z,84.93
2023-02-23T06:44:51.162Z,85.98
2023-02-23T06:47:16.329Z,85.64
2023-02-23T06:49:40.938Z,86.11
2023-02-23T06:52:05.079Z,85.09
2023-02-23T06:54:28.912Z,85.17
2023-02-23T06:56:53.433Z,84.85
2023-02-23T06:59:17.452Z,85.58
2023-02-23T07:01:42.514Z,84.68
2023-02-23T07:04:07.657Z,84.60
2023-02-23T07:06:31.461Z,85.04
2023-02-23T07:08:55.101Z,84.87
2023-02-23T07:11:20.353Z,85.38
2023-02-23T07:13:43.995Z,85.54
2023-02-23T07:16:09.201Z,84.73
2023-02-23T07:18:33.055Z,84.69
2023-02-23T07:20:58.072Z,84.88
2023-02-23T07:23:22.321Z,85.59
2023-02-23T07:25:46.302Z,85.54
2023-02-23T07:28:09.907Z,84.28
2023-02-23T07:30:33.750Z,83.70
2023-02-23T07:32:57.257Z,83.64
2023-02-23T07:35:21.707Z,84.73
2023-02-23T07:37:46.643Z,84.19
2023-02-23T07:40:12.770Z,84.81
2023-02-23T07:42:36.540Z,84.11
2023-02-23T07:45:01.040Z,84.10
2023-02-23T07:47:30.962Z,83.91
2023-02-23T07:49:54.527Z,84.05
2023-02-23T07:52:19.665Z,84.35
2023-02-23T07:54:44.633Z,82.78
2023-02-23T07:57:08.133Z,84.36
2023-02-23T07:59:32.131Z,83.07
2023-02-23T08:01:55.656Z,83.35
2023-02-23T08:04:19.519Z,82.93
2023-02-23T08:06:43.128Z,83.48
2023-02-23T08:09:08.006Z,82.17
2023-02-23T08:11:32.899Z,82.94
2023-02-23T08:13:59.993Z,82.68
2023-02-23T08:16:23.541Z,81.79
2023-02-23T08:18:47.270Z,81.82
2023-02-23T08:21:10.978Z,80.46
2023-02-23T08:23:35.606Z,79.90
2023-02-23T08:25:59.731Z,80.48
2023-02-23T08:28:25.230Z,79.20
2023-02-23T08:30:48.938Z,79.60
2023-02-23T08:33:12.523Z,80.11
2023-02-23T08:35:35.998Z,78.48
2023-02-23T08:38:00.661Z,77.72
2023-02-23T08:40:24.223Z,77.57
2023-02-23T08:42:49.153Z,78.85
2023-02-23T08:45:14.649Z,78.51
2023-02-23T08:47:38.430Z,79.53
2023-02-23T08:50:02.195Z,77.54
2023-02-23T08:52:25.868Z,76.39
2023-02-23T08:54:49.614Z,77.80
2023-02-23T08:57:13.336Z,76.03
2023-02-23T08:59:37.594Z,75.08
2023-02-23T09:02:02.621Z,75.73
2023-02-23T09:04:26.141Z,75.85
2023-02-23T09:06:50.306Z,75.01
2023-02-23T09:09:13.903Z,77.50
2023-02-23T09:11:37.563Z,76.63
2023-02-23T09:14:01.168Z,76.57
2023-02-23T09:16:24.845Z,77.03
2023-02-23T09:18:49.892Z,76.87
2023-02-23T09:21:21.285Z,77.20
2023-02-23T09:23:45.665Z,74.92
2023-02-23T09:26:11.955Z,75.58
2023-02-23T09:28:38.170Z,75.72
2023-02-23T09:31:08.071Z,76.62
2023-02-23T09:33:32.160Z,73.59
2023-02-23T09:35:57.127Z,73.99
2023-02-23T09:38:21.388Z,74.15
2023-02-23T09:40:49.755Z,74.32
2023-02-23T09:43:17.529Z,74.62
2023-02-23T09:45:44.462Z,74.02
2023-02-23T09:48:16.559Z,73.54
2023-02-23T09:50:44.125Z,72.88
2023-02-23T09:53:30.556Z,72.06
2023-02-23T09:55:57.474Z,73.41
2023-02-23T09:58:24.702Z,72.72
2023-02-23T10:01:03.546Z,72.73
2023-02-23T10:03:32.135Z,73.08
2023-02-23T10:06:02.288Z,71.33
2023-02-23T10:08:52.935Z,71.97
2023-02-23T10:11:27.560Z,71.32
2023-02-23T10:14:06.566Z,69.63
2023-02-23T10:16:47.367Z,68.65
2023-02-23T10:19:22.855Z,69.61
2023-02-23T10:21:55.359Z,68.06
2023-02-23T10:24:26.668Z,70.11
2023-02-23T10:26:55.547Z,69.89
2023-02-23T10:29:24.896Z,70.49
2023-02-23T10:31:53.338Z,68.77
2023-02-23T10:34:18.844Z,68.93
2023-02-23T10:36:48.994Z,68.76
2023-02-23T10:39:15.352Z,70.08
2023-02-23T10:41:41.355Z,67.84
2023-02-23T10:44:16.424Z,69.60
2023-02-23T10:46:42.528Z,67.82
2023-02-23T10:49:08.340Z,65.12
2023-02-23T10:51:38.921Z,66.07
2023-02-23T10:54:43.193Z,67.39
2023-02-23T10:57:09.868Z,65.04
2023-02-23T10:59:34.667Z,64.26
2023-02-23T11:02:02.335Z,65.08
2023-02-23T11:04:30.355Z,63.12
2023-02-23T11:07:09.954Z,62.88
2023-02-23T11:09:46.512Z,63.73
2023-02-23T11:12:22.865Z,63.58
2023-02-23T11:14:46.623Z,63.34
2023-02-23T11:17:31.818Z,64.70
2023-02-23T11:20:02.800Z,61.70
2023-02-23T11:22:27.193Z,61.16
2023-02-23T11:24:52.316Z,63.28
2023-02-23T11:27:24.905Z,62.63
2023-02-23T11:29:52.496Z,62.55
2023-02-23T11:32:21.318Z,64.12
2023-02-23T11:34:45.719Z,63.39
2023-02-23T11:37:22.054Z,62.33
2023-02-23T11:39:54.055Z,60.15
2023-02-23T11:42:22.161Z,61.53
2023-02-23T11:44:52.549Z,61.58
2023-02-23T11:47:20.600Z,63.88
2023-02-23T11:49:48.176Z,62.64
2023-02-23T11:52:17.227Z,61.57
2023-02-23T11:54:44.666Z,63.86
2023-02-23T11:57:08.473Z,61.53
2023-02-23T11:59:38.556Z,61.71
2023-02-23T12:02:20.798Z,62.65
2023-02-23T12:04:47.648Z,63.93
2023-02-23T12:07:41.733Z,62.46
2023-02-23T12:10:15.247Z,62.02
2023-02-23T12:12:50.238Z,63.12
2023-02-23T12:15:26.632Z,62.47
2023-02-23T12:17:56.403Z,62.61
2023-02-23T12:20:26.348Z,62.91
2023-02-23T12:22:55.621Z,62.11
2023-02-23T12:25:27.031Z,63.73
2023-02-23T12:28:05.061Z,63.32
2023-02-23T12:30:44.568Z,63.48
2023-02-23T12:33:15.116Z,62.67
2023-02-23T12:35:50.387Z,64.21
2023-02-23T12:38:27.871Z,63.13
2023-02-23T12:40:56.167Z,64.66
2023-02-23T12:43:30.632Z,64.44
2023-02-23T12:46:05.631Z,64.32
2023-02-23T12:48:37.271Z,65.07
2023-02-23T12:51:05.414Z,64.46
2023-02-23T12:53:36.167Z,65.13
2023-02-23T12:56:15.964Z,64.62
2023-02-23T12:58:46.388Z,64.79
2023-02-23T13:01:18.691Z,64.51
2023-02-23T13:04:54.493Z,66.13
2023-02-23T13:07:24.109Z,64.68
2023-02-23T13:10:02.797Z,64.77
2023-02-23T13:12:42.438Z,67.09
2023-02-23T13:15:31.221Z,65.23
2023-02-23T13:18:03.804Z,65.97
2023-02-23T13:20:34.858Z,66.82
2023-02-23T13:23:10.904Z,65.74
2023-02-23T13:25:44.344Z,64.68
2023-02-23T13:28:17.533Z,65.04
2023-02-23T13:30:47.030Z,64.09
2023-02-23T13:33:27.521Z,65.88
2023-02-23T13:35:56.488Z,65.67
2023-02-23T13:38:27.286Z,65.79
2023-02-23T13:40:56.257Z,66.17
2023-02-23T13:43:29.794Z,65.25
2023-02-23T13:46:07.017Z,66.98
2023-02-23T13:48:56.117Z,68.24
2023-02-23T13:51:33.762Z,67.82
2023-02-23T13:54:03.587Z,66.62
2023-02-23T13:56:29.787Z,68.15
2023-02-23T13:58:57.708Z,69.26
2023-02-23T14:01:28.075Z,68.20
2023-02-23T14:03:59.424Z,68.82
2023-02-23T14:06:26.805Z,68.20
2023-02-23T14:08:57.014Z,69.29
2023-02-23T14:11:44.212Z,70.00
2023-02-23T14:14:07.886Z,69.38
2023-02-23T14:16:33.021Z,71.11
2023-02-23T14:19:13.181Z,71.00
2023-02-23T14:21:45.149Z,70.15
2023-02-23T14:24:19.877Z,71.09
2023-02-23T14:26:47.737Z,71.92
2023-02-23T14:29:31.989Z,72.29
2023-02-23T14:32:03.606Z,72.17
2023-02-23T14:37:26.605Z,72.39
2023-02-23T14:39:52.329Z,71.85
2023-02-23T14:42:25.057Z,71.10
2023-02-23T14:44:51.528Z,71.04
2023-02-23T14:47:18.985Z,72.11
2023-02-23T14:49:48.006Z,72.74
2023-02-23T14:52:20.945Z,71.85
2023-02-23T14:54:44.498Z,74.20
2023-02-23T14:57:18.864Z,73.66
2023-02-23T14:59:43.694Z,74.17
2023-02-23T15:02:11.394Z,73.98
2023-02-23T15:04:38.597Z,75.38
2023-02-23T15:07:03.621Z,74.00
2023-02-23T15:09:36.671Z,73.98
2023-02-23T15:12:08.265Z,74.88
2023-02-23T15:14:36.660Z,74.93
2023-02-23T15:17:00.278Z,75.51
2023-02-23T15:19:34.266Z,75.91
2023-02-23T15:22:00.386Z,76.11
2023-02-23T15:24:28.618Z,75.59
2023-02-23T15:26:54.270Z,75.90
2023-02-23T15:29:22.357Z,75.81
2023-02-23T15:31:52.535Z,75.48
2023-02-23T15:34:19.952Z,76.14
2023-02-23T15:36:47.149Z,76.20
2023-02-23T15:39:16.765Z,77.27
2023-02-23T15:41:42.699Z,77.12
2023-02-23T15:44:14.464Z,76.32
2023-02-23T15:46:38.504Z,76.51
2023-02-23T15:49:05.419Z,76.87
2023-02-23T15:51:37.686Z,77.05
2023-02-23T15:54:02.904Z,76.81
2023-02-23T15:56:29.293Z,76.85
2023-02-23T15:58:57.253Z,77.18
2023-02-23T16:01:25.961Z,78.19
2023-02-23T16:04:02.210Z,77.69
2023-02-23T16:06:32.644Z,78.49
2023-02-23T16:09:09.316Z,78.14
2023-02-23T16:11:36.569Z,79.99
2023-02-23T16:14:00.152Z,79.02
2023-02-23T16:16:26.070Z,79.27
2023-02-23T16:19:01.230Z,79.96
2023-02-23T16:21:26.434Z,79.54
2023-02-23T16:23:52.670Z,80.81
2023-02-23T16:26:24.229Z,81.59
2023-02-23T16:28:48.530Z,81.53
2023-02-23T16:31:14.823Z,81.20
2023-02-23T16:33:48.634Z,82.56
2023-02-23T16:36:20.936Z,84.07
2023-02-23T16:38:58.919Z,84.73
2023-02-23T16:41:23.878Z,84.19
2023-02-23T16:43:50.552Z,83.71
2023-02-23T16:46:14.287Z,85.05
2023-02-23T16:48:37.795Z,85.00
2023-02-23T16:51:03.116Z,85.77
2023-02-23T16:53:26.639Z,85.81
2023-02-23T16:55:54.351Z,86.79
2023-02-23T16:58:21.327Z,86.18
2023-02-23T17:00:45.578Z,89.16
2023-02-23T17:03:20.337Z,88.31
2023-02-23T17:05:43.992Z,88.39
2023-02-23T17:08:10.591Z,87.46
2023-02-23T17:10:36.014Z,87.25
2023-02-23T17:13:04.990Z,88.48
2023-02-23T17:15:32.783Z,88.61
2023-02-23T17:17:56.533Z,89.15
2023-02-23T17:20:21.457Z,89.86
2023-02-23T17:22:45.264Z,88.43
2023-02-23T17:25:10.748Z,90.00
2023-02-23T17:27:34.287Z,89.24
2023-02-23T17:29:57.930Z,89.05
2023-02-23T17:32:24.233Z,89.13
2023-02-23T17:34:50.174Z,90.62
2023-02-23T17:37:13.751Z,91.43
2023-02-23T17:39:40.540Z,91.09
2023-02-23T17:42:06.633Z,89.63
2023-02-23T17:44:32.015Z,90.45
2023-02-23T17:46:55.602Z,90.88
2023-02-23T17:49:19.248Z,90.78
2023-02-23T17:51:42.776Z,91.70
2023-02-23T17:54:06.399Z,91.04
2023-02-23T17:56:31.607Z,93.28
2023-02-23T17:58:56.627Z,91.74
2023-02-23T18:01:20.559Z,91.59
2023-02-23T18:03:44.750Z,92.95
2023-02-23T18:06:11.466Z,92.43
2023-02-23T18:08:35.590Z,92.07
2023-02-23T18:11:00.349Z,94.19
2023-02-23T18:13:24.630Z,92.22
2023-02-23T18:15:54.266Z,93.15
2023-02-23T18:18:18.138Z,92.92
2023-02-23T18:20:41.756Z,92.61
2023-02-23T18:23:05.441Z,93.48
2023-02-23T18:25:30.962Z,93.24
2023-02-23T18:27:55.848Z,94.95
2023-02-23T18:30:19.944Z,94.84
2023-02-23T18:32:45.023Z,93.99
2023-02-23T18:35:09.333Z,93.68
2023-02-23T18:37:32.941Z,94.25
2023-02-23T18:39:57.851Z,95.02
2023-02-23T18:42:21.611Z,95.29
2023-02-23T18:44:45.349Z,95.68
2023-02-23T18:47:08.994Z,94.85
2023-02-23T18:49:33.972Z,95.58
2023-02-23T18:51:58.166Z,95.34
2023-02-23T18:54:22.427Z,95.16
2023-02-23T18:56:48.289Z,94.65
2023-02-23T18:59:12.283Z,95.08
2023-02-23T19:01:37.585Z,94.91
2023-02-23T19:04:03.611Z,94.96
2023-02-23T19:06:29.724Z,94.17
2023-02-23T19:08:55.787Z,94.52
2023-02-23T19:11:19.649Z,95.54
2023-02-23T19:13:43.369Z,96.89
2023-02-23T19:16:09.055Z,95.17
2023-02-23T19:18:32.956Z,94.63
2023-02-23T19:20:56.842Z,95.32
2023-02-23T19:23:21.900Z,96.56
2023-02-23T19:25:49.042Z,95.79
2023-02-23T19:28:13.007Z,95.75
2023-02-23T19:30:36.680Z,95.16
2023-02-23T19:33:01.287Z,95.36
2023-02-23T19:35:25.330Z,96.52
2023-02-23T19:37:51.314Z,97.97
2023-02-23T19:40:19.744Z,98.43
2023-02-23T19:42:46.010Z,96.99
2023-02-23T19:45:10.211Z,95.13
2023-02-23T19:47:33.783Z,95.84
2023-02-23T19:49:57.341Z,92.77
2023-02-23T19:52:20.873Z,91.94
2023-02-23T19:54:44.729Z,91.67
2023-02-23T19:57:09.998Z,92.51
2023-02-23T19:59:33.831Z,92.72
2023-02-23T20:01:57.534Z,92.42
2023-02-23T20:04:21.286Z,91.66
2023-02-23T20:06:47.179Z,92.51
2023-02-23T20:09:11.487Z,92.10
2023-02-23T20:11:35.068Z,93.00
2023-02-23T20:14:00.550Z,94.15
2023-02-23T20:16:29.298Z,94.23
2023-02-23T20:18:52.978Z,93.55
2023-02-23T20:21:20.418Z,93.60
2023-02-23T20:23:46.934Z,94.70
2023-02-23T20:26:14.199Z,93.52
2023-02-23T20:28:37.792Z,94.60
2023-02-23T20:31:03.449Z,94.88
2023-02-23T20:33:27.317Z,95.67
2023-02-23T20:35:50.833Z,95.84
2023-02-23T20:38:15.265Z,95.50
2023-02-23T20:40:38.896Z,94.05
2023-02-23T20:43:02.476Z,93.93
2023-02-23T20:45:27.222Z,93.67
2023-02-23T20:47:53.540Z,94.75
2023-02-23T20:50:17.301Z,93.79
2023-02-23T20:52:42.044Z,93.84
2023-02-23T20:55:06.896Z,93.69
2023-02-23T20:57:30.588Z,93.77
2023-02-23T20:59:54.201Z,93.15
2023-02-23T21:02:17.761Z,92.66
2023-02-23T21:04:44.285Z,93.95
2023-02-23T21:07:08.169Z,93.81
2023-02-23T21:09:32.875Z,92.78
2023-02-23T21:11:56.435Z,92.42
2023-02-23T21:14:20.676Z,93.99
2023-02-23T21:16:46.746Z,93.62
2023-02-23T21:19:13.924Z,93.77
2023-02-23T21:21:42.118Z,92.00
2023-02-23T21:24:06.076Z,93.24
2023-02-23T21:26:30.564Z,92.37
2023-02-23T21:28:54.290Z,92.99
2023-02-23T21:31:17.971Z,93.36
2023-02-23T21:33:43.446Z,93.55
2023-02-23T21:36:10.563Z,92.10
2023-02-23T21:38:35.505Z,93.55
2023-02-23T21:40:59.128Z,93.93
2023-02-23T21:43:23.142Z,93.91
2023-02-23T21:45:46.815Z,94.26
2023-02-23T21:48:10.792Z,94.32
2023-02-23T21:50:34.359Z,92.63
2023-02-23T21:52:58.305Z,92.52
2023-02-23T21:55:23.546Z,93.77
2023-02-23T21:57:47.205Z,94.90
2023-02-23T22:00:13.216Z,93.52
2023-02-23T22:02:41.039Z,93.50
2023-02-23T22:05:05.299Z,93.24
2023-02-23T22:07:29.289Z,92.57
2023-02-23T22:09:52.893Z,93.10
2023-02-23T22:12:17.816Z,94.01
2023-02-23T22:14:41.372Z,94.22
2023-02-23T22:17:06.354Z,93.57
2023-02-23T22:19:30.167Z,93.55
2023-02-23T22:21:55.148Z,93.13
2023-02-23T22:24:19.641Z,93.10
2023-02-23T22:26:50.563Z,92.20
2023-02-23T22:29:15.641Z,93.20
2023-02-23T22:31:40.010Z,93.42
2023-02-23T22:34:06.239Z,93.49
2023-02-23T22:36:30.033Z,93.17
2023-02-23T22:38:53.644Z,93.43
2023-02-23T22:41:17.179Z,93.44
2023-02-23T22:43:41.621Z,92.60
2023-02-23T22:46:07.706Z,92.51
2023-02-23T22:48:31.371Z,93.72
2023-02-23T22:50:55.406Z,93.05
2023-02-23T22:53:19.490Z,94.08
2023-02-23T22:55:48.133Z,94.70
2023-02-23T22:58:12.284Z,93.90
2023-02-23T23:00:36.247Z,95.25
2023-02-23T23:03:05.241Z,94.98
2023-02-23T23:05:28.818Z,94.91
2023-02-23T23:07:52.573Z,93.12
2023-02-23T23:10:17.822Z,94.31
2023-02-23T23:12:41.430Z,94.06
2023-02-23T23:15:07.465Z,93.53
2023-02-23T23:17:32.028Z,95.14
2023-02-23T23:19:57.497Z,94.60
2023-02-23T23:22:21.049Z,93.83
2023-02-23T23:24:48.993Z,93.39
2023-02-23T23:27:14.589Z,94.16
2023-02-23T23:29:38.431Z,94.84
2023-02-23T23:32:04.689Z,95.30
2023-02-23T23:34:28.343Z,94.61
2023-02-23T23:36:55.430Z,94.99
2023-02-23T23:39:21.907Z,93.50
2023-02-23T23:41:48.112Z,94.41
2023-02-23T23:44:13.269Z,92.64
2023-02-23T23:46:42.642Z,94.07
2023-02-23T23:49:11.063Z,95.25
2023-02-23T23:51:38.980Z,95.72
2023-02-23T23:54:04.607Z,95.71
2023-02-23T23:56:30.546Z,95.25
2023-02-23T23:58:55.926Z,95.50
